createdAt,value
2019-01-08T00:02:08.725Z,7.22
2019-01-08T00:04:37.397Z,6.75
2019-01-08T00:07:06.365Z,7.25
2019-01-08T00:09:35.023Z,6.50
2019-01-08T00:12:09.547Z,7.40
2019-01-08T00:14:39.258Z,11.80
2019-01-08T00:17:07.916Z,15.58
2019-01-08T00:19:36.216Z,21.37
2019-01-08T00:22:06.986Z,13.60
2019-01-08T00:24:35.749Z,15.13
2019-01-08T00:27:04.475Z,13.10
2019-01-08T00:29:38.240Z,11.00
2019-01-08T00:32:06.900Z,6.65
2019-01-08T00:35:02.937Z,8.10
2019-01-08T00:37:31.587Z,6.95
2019-01-08T00:40:00.378Z,8.13
2019-01-08T00:42:29.309Z,6.22
2019-01-08T00:45:07.147Z,6.05
2019-01-08T00:47:35.794Z,4.83
2019-01-08T00:50:04.155Z,6.08
2019-01-08T00:52:32.824Z,6.05
2019-01-08T00:55:01.502Z,5.80
2019-01-08T00:57:32.167Z,5.58
2019-01-08T01:00:00.827Z,5.83
2019-01-08T01:02:29.464Z,6.60
2019-01-08T01:04:58.160Z,6.10
2019-01-08T01:07:26.803Z,6.95
2019-01-08T01:09:57.163Z,6.95
2019-01-08T01:12:25.476Z,5.60
2019-01-08T01:14:54.213Z,6.22
2019-01-08T01:17:22.859Z,7.67
2019-01-08T01:19:59.773Z,8.05
2019-01-08T01:22:28.438Z,10.98
2019-01-08T01:24:57.108Z,8.75
2019-01-08T01:27:28.900Z,8.80
2019-01-08T01:29:57.606Z,11.78
2019-01-08T01:32:26.326Z,10.17
2019-01-08T01:34:54.725Z,11.67
2019-01-08T01:37:23.377Z,11.30
2019-01-08T01:39:52.126Z,15.07
2019-01-08T01:42:20.775Z,11.48
2019-01-08T01:44:51.446Z,12.40
2019-01-08T01:47:20.091Z,14.25
2019-01-08T01:49:48.988Z,21.50
2019-01-08T01:52:17.632Z,14.77
2019-01-08T01:54:46.302Z,19.00
2019-01-08T01:57:14.635Z,12.07
2019-01-08T01:59:43.329Z,14.65
2019-01-08T02:02:12.000Z,21.62
2019-01-08T02:04:40.670Z,16.12
2019-01-08T02:07:09.325Z,17.17
2019-01-08T02:09:37.963Z,16.40
2019-01-08T02:12:06.637Z,21.33
2019-01-08T02:14:35.280Z,13.25
2019-01-08T02:17:03.983Z,10.05
2019-01-08T02:19:32.246Z,16.20
2019-01-08T02:22:03.008Z,14.67
2019-01-08T02:24:31.684Z,18.90
2019-01-08T02:27:00.590Z,18.67
2019-01-08T02:29:29.282Z,18.27
2019-01-08T02:31:57.945Z,16.80
2019-01-08T02:34:26.596Z,20.93
2019-01-08T02:36:55.311Z,18.32
2019-01-08T02:39:31.765Z,16.60
2019-01-08T02:42:00.144Z,15.63
2019-01-08T02:44:28.936Z,21.23
2019-01-08T02:46:57.253Z,20.17
2019-01-08T02:49:25.899Z,18.92
2019-01-08T02:51:54.586Z,21.40
2019-01-08T02:54:23.437Z,16.10
2019-01-08T02:56:52.174Z,13.35
2019-01-08T02:59:25.105Z,15.10
2019-01-08T03:01:57.068Z,13.55
2019-01-08T03:04:25.720Z,10.43
2019-01-08T03:06:54.012Z,12.47
2019-01-08T03:09:22.734Z,14.18
2019-01-08T03:11:52.553Z,10.68
2019-01-08T03:14:21.244Z,12.53
2019-01-08T03:16:49.890Z,13.40
2019-01-08T03:19:18.562Z,10.35
2019-01-08T03:21:55.431Z,12.53
2019-01-08T03:24:24.076Z,9.63
2019-01-08T03:26:52.736Z,13.25
2019-01-08T03:29:21.263Z,10.00
2019-01-08T03:31:49.976Z,10.60
2019-01-08T03:34:27.031Z,10.88
2019-01-08T03:36:55.682Z,11.40
2019-01-08T03:39:31.570Z,9.35
2019-01-08T03:42:00.259Z,9.45
2019-01-08T03:44:39.139Z,10.20
2019-01-08T03:47:07.790Z,9.10
2019-01-08T03:49:36.450Z,10.13
2019-01-08T03:52:05.147Z,10.63
2019-01-08T03:54:33.429Z,8.93
2019-01-08T03:57:02.202Z,10.20
2019-01-08T03:59:30.902Z,10.65
2019-01-08T04:01:59.532Z,9.63
2019-01-08T04:04:28.186Z,9.13
2019-01-08T04:06:56.874Z,7.80
2019-01-08T04:09:25.511Z,7.40
2019-01-08T04:12:01.239Z,18.45
2019-01-08T04:14:40.788Z,43.13
2019-01-08T04:17:09.446Z,14.63
2019-01-08T04:19:37.760Z,8.93
2019-01-08T04:22:06.697Z,6.42
2019-01-08T04:24:35.343Z,4.80
2019-01-08T04:27:04.160Z,7.10
2019-01-08T04:29:32.806Z,7.13
2019-01-08T04:32:01.501Z,5.23
2019-01-08T04:34:30.225Z,10.03
2019-01-08T04:37:00.937Z,7.20
2019-01-08T04:39:29.580Z,5.60
2019-01-08T04:42:01.002Z,5.80
2019-01-08T04:44:31.728Z,8.00
2019-01-08T04:47:00.369Z,6.65
2019-01-08T04:49:29.035Z,5.60
2019-01-08T04:51:57.683Z,6.27
2019-01-08T04:54:26.455Z,4.75
2019-01-08T04:56:55.209Z,6.10
2019-01-08T04:59:23.873Z,5.53
2019-01-08T05:01:53.581Z,3.53
2019-01-08T05:04:22.329Z,4.03
2019-01-08T05:06:51.001Z,4.83
2019-01-08T05:09:19.686Z,8.05
2019-01-08T05:11:48.324Z,3.83
2019-01-08T05:14:16.994Z,3.35
2019-01-08T05:16:45.674Z,3.80
2019-01-08T05:19:14.317Z,3.35
2019-01-08T05:21:43.220Z,3.33
2019-01-08T05:24:11.857Z,3.02
2019-01-08T05:26:40.137Z,3.50
2019-01-08T05:29:08.798Z,3.42
2019-01-08T05:31:39.829Z,4.80
2019-01-08T05:34:08.497Z,5.72
2019-01-08T05:36:37.132Z,4.63
2019-01-08T05:39:06.668Z,6.58
2019-01-08T05:41:36.335Z,4.78
2019-01-08T05:44:04.992Z,5.28
2019-01-08T05:46:34.749Z,4.72
2019-01-08T05:49:03.060Z,5.53
2019-01-08T05:51:31.789Z,4.50
2019-01-08T05:54:00.446Z,4.50
2019-01-08T05:56:29.144Z,7.25
2019-01-08T05:58:58.948Z,6.93
2019-01-08T06:01:27.602Z,6.00
2019-01-08T06:03:56.257Z,6.80
2019-01-08T06:06:24.968Z,23.18
2019-01-08T06:08:53.643Z,13.83
2019-01-08T06:11:21.923Z,8.10
2019-01-08T06:13:50.568Z,8.60
2019-01-08T06:16:19.275Z,8.77
2019-01-08T06:18:47.919Z,8.15
2019-01-08T06:21:22.512Z,8.50
2019-01-08T06:23:51.146Z,6.80
2019-01-08T06:26:20.113Z,7.73
2019-01-08T06:28:48.810Z,5.90
2019-01-08T06:31:17.445Z,5.07
2019-01-08T06:33:45.767Z,5.08
2019-01-08T06:36:14.060Z,7.40
2019-01-08T06:38:42.752Z,1.80
2019-01-08T06:41:11.789Z,2.13
2019-01-08T06:43:40.430Z,1.50
2019-01-08T06:46:10.212Z,0.60
2019-01-08T06:48:39.177Z,3.17
2019-01-08T06:51:07.827Z,0.93
2019-01-08T06:53:36.476Z,0.43
2019-01-08T06:56:04.777Z,0.57
2019-01-08T06:58:33.057Z,0.63
2019-01-08T07:01:02.019Z,2.37
2019-01-08T07:03:30.789Z,0.50
2019-01-08T07:05:59.440Z,0.60
2019-01-08T07:08:29.539Z,0.80
2019-01-08T07:10:58.412Z,3.70
2019-01-08T07:13:27.104Z,1.30
2019-01-08T07:15:55.779Z,1.93
2019-01-08T07:18:24.050Z,0.80
2019-01-08T07:20:52.897Z,0.73
2019-01-08T07:23:21.559Z,0.70
2019-01-08T07:25:50.248Z,0.50
2019-01-08T07:28:18.884Z,1.80
2019-01-08T07:30:47.557Z,0.47
2019-01-08T07:33:16.254Z,0.40
2019-01-08T07:35:44.889Z,1.03
2019-01-08T07:38:14.142Z,0.43
2019-01-08T07:40:42.623Z,3.60
2019-01-08T07:43:11.276Z,0.57
2019-01-08T07:45:39.942Z,34.63
2019-01-08T07:48:08.686Z,17.70
2019-01-08T07:50:37.367Z,12.33
2019-01-08T07:53:06.273Z,1.83
2019-01-08T07:55:34.912Z,3.20
2019-01-08T07:58:03.589Z,1.20
2019-01-08T08:00:32.268Z,0.90
2019-01-08T08:03:00.539Z,0.93
2019-01-08T08:05:29.231Z,0.70
2019-01-08T08:07:57.915Z,1.07
2019-01-08T08:10:26.559Z,1.73
2019-01-08T08:12:55.261Z,1.37
2019-01-08T08:15:23.911Z,2.07
2019-01-08T08:17:52.973Z,5.23
2019-01-08T08:20:21.660Z,2.93
2019-01-08T08:22:50.305Z,2.37
2019-01-08T08:25:18.583Z,0.83
2019-01-08T08:27:47.275Z,2.47
2019-01-08T08:30:16.031Z,1.83
2019-01-08T08:32:44.685Z,1.63
2019-01-08T08:35:13.336Z,1.23
2019-01-08T08:37:41.992Z,0.50
2019-01-08T08:40:10.650Z,0.67
2019-01-08T08:42:39.289Z,0.40
2019-01-08T08:45:08.655Z,3.90
2019-01-08T08:47:36.967Z,3.83
2019-01-08T08:50:05.829Z,0.50
2019-01-08T08:52:34.471Z,0.60
2019-01-08T08:55:03.160Z,0.60
2019-01-08T08:57:31.821Z,0.70
2019-01-08T09:00:00.489Z,0.80
2019-01-08T09:02:29.405Z,0.40
2019-01-08T09:04:58.112Z,8.33
2019-01-08T09:07:26.760Z,0.40
2019-01-08T09:09:55.278Z,0.50
2019-01-08T09:12:23.992Z,0.60
2019-01-08T09:14:52.628Z,0.53
2019-01-08T09:17:21.539Z,4.00
2019-01-08T09:19:50.225Z,7.90
2019-01-08T09:22:18.865Z,10.37
2019-01-08T09:24:47.516Z,0.90
2019-01-08T09:27:16.156Z,0.83
2019-01-08T09:29:44.832Z,0.50
2019-01-08T09:32:13.393Z,0.70
2019-01-08T09:34:42.389Z,0.50
2019-01-08T09:37:11.037Z,0.60
2019-01-08T09:39:39.731Z,0.43
2019-01-08T09:42:08.372Z,1.00
2019-01-08T09:44:37.034Z,1.00
2019-01-08T09:47:05.666Z,0.60
2019-01-08T09:49:34.355Z,1.37
2019-01-08T09:52:02.994Z,1.67
2019-01-08T09:54:31.305Z,0.60
2019-01-08T09:56:59.951Z,0.50
2019-01-08T09:59:28.650Z,0.50
2019-01-08T10:01:57.306Z,0.40
2019-01-08T10:04:26.025Z,0.60
2019-01-08T10:06:54.689Z,1.43
2019-01-08T10:09:23.338Z,0.83
2019-01-08T10:11:52.034Z,0.40
2019-01-08T10:14:20.662Z,0.90
2019-01-08T10:16:48.981Z,0.50
2019-01-08T10:19:17.663Z,0.53
2019-01-08T10:21:46.339Z,0.50
2019-01-08T10:24:15.020Z,12.10
2019-01-08T10:26:43.708Z,0.70
2019-01-08T10:29:12.347Z,4.20
2019-01-08T10:31:41.005Z,0.60
2019-01-08T10:34:09.695Z,1.13
2019-01-08T10:36:38.399Z,2.00
2019-01-08T10:39:07.484Z,34.27
2019-01-08T10:41:36.161Z,2.90
2019-01-08T10:44:04.875Z,6.30
2019-01-08T10:46:37.611Z,2.00
2019-01-08T10:49:03.885Z,4.87
2019-01-08T10:51:32.541Z,5.83
2019-01-08T10:54:01.181Z,4.60
2019-01-08T10:56:29.876Z,3.00
2019-01-08T10:58:58.767Z,2.20
2019-01-08T11:01:27.048Z,4.40
2019-01-08T11:03:55.714Z,1.47
2019-01-08T11:06:24.390Z,6.50
2019-01-08T11:08:53.025Z,1.43
2019-01-08T11:11:21.681Z,2.63
2019-01-08T11:13:50.316Z,0.93
2019-01-08T11:16:18.985Z,0.70
2019-01-08T11:18:47.624Z,3.27
2019-01-08T11:21:16.283Z,2.67
2019-01-08T11:23:44.559Z,3.27
2019-01-08T11:26:13.500Z,1.27
2019-01-08T11:28:43.234Z,8.93
2019-01-08T11:31:11.982Z,12.27
2019-01-08T11:33:40.637Z,2.37
2019-01-08T11:36:09.333Z,7.20
2019-01-08T11:38:38.011Z,9.13
2019-01-08T11:41:06.659Z,1.80
2019-01-08T11:43:35.299Z,0.83
2019-01-08T11:46:03.564Z,0.93
2019-01-08T11:48:32.202Z,1.60
2019-01-08T11:51:00.901Z,1.27
2019-01-08T11:53:29.532Z,1.60
2019-01-08T11:55:59.054Z,2.90
2019-01-08T11:58:27.813Z,6.10
2019-01-08T12:00:56.466Z,5.47
2019-01-08T12:03:25.121Z,3.00
2019-01-08T12:05:53.396Z,2.60
2019-01-08T12:08:21.663Z,2.57
2019-01-08T12:10:50.308Z,1.57
2019-01-08T12:13:20.554Z,2.20
2019-01-08T12:15:49.233Z,1.40
2019-01-08T12:18:17.864Z,2.20
2019-01-08T12:20:46.515Z,1.33
2019-01-08T12:23:15.176Z,3.03
2019-01-08T12:25:43.827Z,2.30
2019-01-08T12:28:12.106Z,1.60
2019-01-08T12:30:40.747Z,3.13
2019-01-08T12:33:09.680Z,5.40
2019-01-08T12:35:38.327Z,48.37
2019-01-08T12:38:07.027Z,19.93
2019-01-08T12:40:35.673Z,104.47
2019-01-08T12:43:04.342Z,142.13
2019-01-08T12:45:32.992Z,16.90
2019-01-08T12:48:01.641Z,8.10
2019-01-08T12:50:29.908Z,4.10
2019-01-08T12:52:59.377Z,2.50
2019-01-08T12:55:28.039Z,3.60
2019-01-08T12:57:56.692Z,15.97
2019-01-08T13:00:25.331Z,10.73
2019-01-08T13:02:53.977Z,5.40
2019-01-08T13:05:22.919Z,35.73
2019-01-08T13:07:51.591Z,4.00
2019-01-08T13:10:20.235Z,6.63
2019-01-08T13:12:48.506Z,3.60
2019-01-08T13:15:17.672Z,2.00
2019-01-08T13:17:46.354Z,4.37
2019-01-08T13:20:15.000Z,1.97
2019-01-08T13:22:43.644Z,2.00
2019-01-08T13:25:12.302Z,4.33
2019-01-08T13:27:40.928Z,5.73
2019-01-08T13:30:09.805Z,11.73
2019-01-08T13:32:38.444Z,2.53
2019-01-08T13:35:06.748Z,4.50
2019-01-08T13:37:35.641Z,3.60
2019-01-08T13:40:04.309Z,1.50
2019-01-08T13:42:32.994Z,4.40
2019-01-08T13:45:01.624Z,2.40
2019-01-08T13:47:30.270Z,1.73
2019-01-08T13:49:59.211Z,1.77
2019-01-08T13:52:27.919Z,6.23
2019-01-08T13:54:56.568Z,2.60
2019-01-08T13:57:24.893Z,1.47
2019-01-08T13:59:53.587Z,1.90
2019-01-08T14:02:22.263Z,2.30
2019-01-08T14:04:51.170Z,1.97
2019-01-08T14:07:19.821Z,1.93
2019-01-08T14:09:48.472Z,1.47
2019-01-08T14:12:17.122Z,1.97
2019-01-08T14:14:45.812Z,7.13
2019-01-08T14:17:14.539Z,2.13
2019-01-08T14:19:42.809Z,3.80
2019-01-08T14:22:11.470Z,4.37
2019-01-08T14:24:40.127Z,2.13
2019-01-08T14:27:11.869Z,4.30
2019-01-08T14:29:39.135Z,3.60
2019-01-08T14:32:07.799Z,4.80
2019-01-08T14:34:36.478Z,4.20
2019-01-08T14:37:05.117Z,1.23
2019-01-08T14:39:34.119Z,1.87
2019-01-08T14:42:02.523Z,2.70
2019-01-08T14:44:31.213Z,1.70
2019-01-08T14:47:01.177Z,2.30
2019-01-08T14:49:29.817Z,1.93
2019-01-08T14:51:58.466Z,2.30
2019-01-08T14:54:27.425Z,3.97
2019-01-08T14:56:56.100Z,8.43
2019-01-08T14:59:26.463Z,5.80
2019-01-08T15:01:55.482Z,2.40
2019-01-08T15:04:23.727Z,3.13
2019-01-08T15:06:52.377Z,3.57
2019-01-08T15:09:21.013Z,4.87
2019-01-08T15:11:49.431Z,5.20
2019-01-08T15:14:18.118Z,1.60
2019-01-08T15:16:46.800Z,2.33
2019-01-08T15:19:15.679Z,1.50
2019-01-08T15:21:44.319Z,2.03
2019-01-08T15:24:13.270Z,3.77
2019-01-08T15:26:41.537Z,3.33
2019-01-08T15:29:10.184Z,2.20
2019-01-08T15:31:39.137Z,12.40
2019-01-08T15:34:07.825Z,13.00
2019-01-08T15:36:36.838Z,6.20
2019-01-08T15:39:06.821Z,6.03
2019-01-08T15:41:35.459Z,13.23
2019-01-08T15:44:04.106Z,3.17
2019-01-08T15:46:32.761Z,10.83
2019-01-08T15:49:01.036Z,12.23
2019-01-08T15:51:29.734Z,18.10
2019-01-08T15:53:58.416Z,6.70
2019-01-08T15:56:27.304Z,2.80
2019-01-08T15:58:55.972Z,8.80
2019-01-08T16:01:24.620Z,25.00
2019-01-08T16:03:53.329Z,6.37
2019-01-08T16:06:22.031Z,16.57
2019-01-08T16:08:50.723Z,5.13
2019-01-08T16:11:18.978Z,5.83
2019-01-08T16:13:47.632Z,8.90
2019-01-08T16:16:16.285Z,52.70
2019-01-08T16:18:44.936Z,116.43
2019-01-08T16:21:13.584Z,212.60
2019-01-08T16:23:42.277Z,2.40
2019-01-08T16:26:10.901Z,5.70
2019-01-08T16:28:39.576Z,4.03
2019-01-08T16:31:08.255Z,6.77
2019-01-08T16:33:36.500Z,5.30
2019-01-08T16:36:05.146Z,10.00
2019-01-08T16:38:33.809Z,3.63
2019-01-08T16:41:02.452Z,2.80
2019-01-08T16:43:31.092Z,5.40
2019-01-08T16:45:59.765Z,5.10
2019-01-08T16:48:28.457Z,6.73
2019-01-08T16:50:57.343Z,7.43
2019-01-08T16:53:25.665Z,4.80
2019-01-08T16:55:54.304Z,14.60
2019-01-08T16:58:23.084Z,7.20
2019-01-08T17:00:51.733Z,36.40
2019-01-08T17:03:24.822Z,11.60
2019-01-08T17:05:50.769Z,29.60
2019-01-08T17:08:19.717Z,12.13
2019-01-08T17:10:48.360Z,6.17
2019-01-08T17:13:17.038Z,5.43
2019-01-08T17:15:45.300Z,6.33
2019-01-08T17:18:13.983Z,4.67
2019-01-08T17:20:42.612Z,3.50
2019-01-08T17:23:11.336Z,3.20
2019-01-08T17:25:39.976Z,5.30
2019-01-08T17:28:08.628Z,1.80
2019-01-08T17:30:37.274Z,2.67
2019-01-08T17:33:06.003Z,2.00
2019-01-08T17:35:34.753Z,6.20
2019-01-08T17:38:03.019Z,2.00
2019-01-08T17:40:31.708Z,1.47
2019-01-08T17:43:00.340Z,1.43
2019-01-08T17:45:28.991Z,1.80
2019-01-08T17:47:57.628Z,2.50
2019-01-08T17:50:26.276Z,1.60
2019-01-08T17:52:54.943Z,3.43
2019-01-08T17:55:23.595Z,1.57
2019-01-08T17:58:30.468Z,2.50
2019-01-08T18:00:59.453Z,0.83
2019-01-08T18:03:28.117Z,3.77
2019-01-08T18:05:56.521Z,1.33
2019-01-08T18:08:25.144Z,2.97
2019-01-08T18:10:54.060Z,5.90
2019-01-08T18:13:22.851Z,8.70
2019-01-08T18:15:51.510Z,20.70
2019-01-08T18:18:20.188Z,10.80
2019-01-08T18:20:48.824Z,5.53
2019-01-08T18:23:17.474Z,9.93
2019-01-08T18:25:46.112Z,12.93
2019-01-08T18:28:14.515Z,10.73
2019-01-08T18:30:43.188Z,1.50
2019-01-08T18:33:11.925Z,4.30
2019-01-08T18:35:40.570Z,1.70
2019-01-08T18:38:09.263Z,7.17
2019-01-08T18:40:38.006Z,5.93
2019-01-08T18:43:13.973Z,7.10
2019-01-08T18:45:37.041Z,4.47
2019-01-08T18:48:05.726Z,1.80
2019-01-08T18:50:34.003Z,4.13
2019-01-08T18:53:02.689Z,6.43
2019-01-08T18:55:31.353Z,5.57
2019-01-08T18:58:00.112Z,8.20
2019-01-08T19:00:28.806Z,17.33
2019-01-08T19:02:57.529Z,5.93
2019-01-08T19:05:26.274Z,4.97
2019-01-08T19:07:54.944Z,7.70
2019-01-08T19:10:23.615Z,2.30
2019-01-08T19:12:51.929Z,4.77
2019-01-08T19:15:20.732Z,3.50
2019-01-08T19:17:49.356Z,2.93
2019-01-08T19:20:18.102Z,2.37
2019-01-08T19:22:47.007Z,2.50
2019-01-08T19:25:15.715Z,6.27
2019-01-08T19:27:44.419Z,3.10
2019-01-08T19:30:13.086Z,4.13
2019-01-08T19:32:41.733Z,5.43
2019-01-08T19:35:10.047Z,12.90
2019-01-08T19:37:38.797Z,6.83
2019-01-08T19:40:07.890Z,12.37
2019-01-08T19:42:36.539Z,16.77
2019-01-08T19:45:05.535Z,7.90
2019-01-08T19:47:34.185Z,6.10
2019-01-08T19:50:02.927Z,5.20
2019-01-08T19:52:31.727Z,3.07
2019-01-08T19:55:00.299Z,2.73
2019-01-08T19:57:28.625Z,2.00
2019-01-08T19:59:57.355Z,32.77
2019-01-08T20:02:26.013Z,35.87
2019-01-08T20:04:54.780Z,20.53
2019-01-08T20:07:23.529Z,23.27
2019-01-08T20:09:52.219Z,20.83
2019-01-08T20:12:20.960Z,6.60
2019-01-08T20:14:49.608Z,14.97
2019-01-08T20:17:17.894Z,2.40
2019-01-08T20:19:46.600Z,13.17
2019-01-08T20:22:15.305Z,22.47
2019-01-08T20:24:43.952Z,36.27
2019-01-08T20:27:12.677Z,8.83
2019-01-08T20:29:41.364Z,5.10
2019-01-08T20:32:10.279Z,9.63
2019-01-08T20:34:38.924Z,3.70
2019-01-08T20:37:07.589Z,51.73
2019-01-08T20:39:35.895Z,146.07
2019-01-08T20:42:04.813Z,179.03
2019-01-08T20:44:33.628Z,145.97
2019-01-08T20:47:05.191Z,74.40
2019-01-08T20:49:33.837Z,201.77
2019-01-08T20:52:02.652Z,58.10
2019-01-08T20:54:34.247Z,66.83
2019-01-08T20:57:09.167Z,93.97
2019-01-08T20:59:36.369Z,16.00
2019-01-08T21:02:05.207Z,23.33
2019-01-08T21:04:35.634Z,16.80
2019-01-08T21:07:03.937Z,8.40
2019-01-08T21:09:32.593Z,4.30
2019-01-08T21:12:01.284Z,3.20
2019-01-08T21:14:30.000Z,2.07
2019-01-08T21:16:58.722Z,3.70
2019-01-08T21:19:27.383Z,1.83
2019-01-08T21:21:56.175Z,1.93
2019-01-08T21:24:28.830Z,3.00
2019-01-08T21:26:54.836Z,1.30
2019-01-08T21:29:23.616Z,1.70
2019-01-08T21:31:52.274Z,4.20
2019-01-08T21:34:20.943Z,5.17
2019-01-08T21:36:49.579Z,1.83
2019-01-08T21:42:07.256Z,2.40
2019-01-08T21:44:35.947Z,1.07
2019-01-08T21:47:04.836Z,1.30
2019-01-08T21:49:33.423Z,2.57
2019-01-08T21:52:02.415Z,1.03
2019-01-08T21:54:31.244Z,1.23
2019-01-08T21:56:59.936Z,1.23
2019-01-08T21:59:28.582Z,1.23
2019-01-08T22:01:57.230Z,1.23
2019-01-08T22:04:25.870Z,1.53
2019-01-08T22:06:54.530Z,0.73
2019-01-08T22:09:23.212Z,1.30
2019-01-08T22:11:55.511Z,4.93
2019-01-08T22:14:24.254Z,1.10
2019-01-08T22:16:52.992Z,2.70
2019-01-08T22:19:21.784Z,3.73
2019-01-08T22:21:50.508Z,1.90
2019-01-08T22:24:19.216Z,2.10
2019-01-08T22:26:47.881Z,4.00
2019-01-08T22:29:16.546Z,2.17
2019-01-08T22:31:45.196Z,4.20
2019-01-08T22:34:13.520Z,2.17
2019-01-08T22:36:42.225Z,3.67
2019-01-08T22:39:10.969Z,1.70
2019-01-08T22:41:39.605Z,1.20
2019-01-08T22:44:08.262Z,1.63
2019-01-08T22:46:36.971Z,2.10
2019-01-08T22:49:05.624Z,2.17
2019-01-08T22:51:34.312Z,3.37
2019-01-08T22:54:03.022Z,1.20
2019-01-08T22:56:37.735Z,1.60
2019-01-08T22:59:03.873Z,1.53
2019-01-08T23:01:40.409Z,1.90
2019-01-08T23:04:10.698Z,4.37
2019-01-08T23:06:39.432Z,1.13
2019-01-08T23:09:08.321Z,2.60
2019-01-08T23:11:37.565Z,1.30
2019-01-08T23:14:06.648Z,1.50
2019-01-08T23:16:35.288Z,4.90
2019-01-08T23:19:03.620Z,1.17
2019-01-08T23:21:32.369Z,5.70
2019-01-08T23:24:01.065Z,3.97
2019-01-08T23:26:29.729Z,3.47
2019-01-08T23:28:58.416Z,5.27
2019-01-08T23:31:27.302Z,7.83
2019-01-08T23:33:55.957Z,3.30
2019-01-08T23:36:24.716Z,2.27
2019-01-08T23:38:53.438Z,1.13
2019-01-08T23:41:21.716Z,2.80
2019-01-08T23:43:50.403Z,6.37
2019-01-08T23:46:19.132Z,1.45
2019-01-08T23:48:47.796Z,2.10
2019-01-08T23:51:16.700Z,10.23
2019-01-08T23:53:47.971Z,9.63
2019-01-08T23:56:16.745Z,4.07
2019-01-08T23:58:45.726Z,1.40
